Terminal Aerodrome Forecast
Issued by NWS Sterling, VA

Current Version | Previous Version | Graphics & Text | Print | Product List | Glossary On
Versions: 1 2 3 4 5 6 7 8 9 10 11 12 13
000
FTUS41 KLWX 231700 RRA
TAFMRB
TAF
KMRB 231745Z 2318/2418 30018G30KT P6SM SCT050
     FM232300 32016KT P6SM FEW250
     FM240500 32009KT P6SM SKC
     FM240900 31005KT P6SM SKC
     FM241600 31010KT P6SM SCT200=

USA.gov is the U.S. government's official web portal to all federal, state and local government web resources and services.